Map

Track Data

SID SEASON NUMBER BASIN SUBBASIN NAME ISO_TIME NATURE LAT LON WMO_WIND WMO_PRES WMO_AGENCY TRACK_TYPE DIST2LAND LANDFALL IFLAG USA_AGENCY USA_ATCF_ID USA_LAT USA_LON USA_RECORD USA_STATUS USA_WIND USA_PRES USA_SSHS USA_R34_NE USA_R34_SE USA_R34_SW USA_R34_NW USA_R50_NE USA_R50_SE USA_R50_SW USA_R50_NW USA_R64_NE USA_R64_SE USA_R64_SW USA_R64_NW USA_POCI USA_ROCI USA_RMW USA_EYE TOKYO_LAT TOKYO_LON TOKYO_GRADE TOKYO_WIND TOKYO_PRES TOKYO_R50_DIR TOKYO_R50_LONG TOKYO_R50_SHORT TOKYO_R30_DIR TOKYO_R30_LONG TOKYO_R30_SHORT TOKYO_LAND CMA_LAT CMA_LON CMA_CAT CMA_WIND CMA_PRES HKO_LAT HKO_LON HKO_CAT HKO_WIND HKO_PRES NEWDELHI_LAT NEWDELHI_LON NEWDELHI_GRADE NEWDELHI_WIND NEWDELHI_PRES NEWDELHI_CI NEWDELHI_DP NEWDELHI_POCI REUNION_LAT REUNION_LON REUNION_TYPE REUNION_WIND REUNION_PRES REUNION_TNUM REUNION_CI REUNION_RMW REUNION_R34_NE REUNION_R34_SE REUNION_R34_SW REUNION_R34_NW REUNION_R50_NE REUNION_R50_SE REUNION_R50_SW REUNION_R50_NW REUNION_R64_NE REUNION_R64_SE REUNION_R64_SW REUNION_R64_NW BOM_LAT BOM_LON BOM_TYPE BOM_WIND BOM_PRES BOM_TNUM BOM_CI BOM_RMW BOM_R34_NE BOM_R34_SE BOM_R34_SW BOM_R34_NW BOM_R50_NE BOM_R50_SE BOM_R50_SW BOM_R50_NW BOM_R64_NE BOM_R64_SE BOM_R64_SW BOM_R64_NW BOM_ROCI BOM_POCI BOM_EYE BOM_POS_METHOD BOM_PRES_METHOD NADI_LAT NADI_LON NADI_CAT NADI_WIND NADI_PRES WELLINGTON_LAT WELLINGTON_LON WELLINGTON_WIND WELLINGTON_PRES DS824_LAT DS824_LON DS824_STAGE DS824_WIND DS824_PRES TD9636_LAT TD9636_LON TD9636_STAGE TD9636_WIND TD9636_PRES TD9635_LAT TD9635_LON TD9635_WIND TD9635_PRES TD9635_ROCI NEUMANN_LAT NEUMANN_LON NEUMANN_CLASS NEUMANN_WIND NEUMANN_PRES MLC_LAT MLC_LON MLC_CLASS MLC_WIND MLC_PRES USA_GUST BOM_GUST BOM_GUST_PER REUNION_GUST REUNION_GUST_PER USA_SEAHGT USA_SEARAD_NE USA_SEARAD_SE USA_SEARAD_SW USA_SEARAD_NW STORM_SPEED STORM_DIR
1929249N13144 1929 55 WP MM NOT_NAMED 1929-09-05 22:00:00 NR 12.7000 143.800 main 1686 1686 __________O___ -1 12.7000 143.800 7 23 293
1929249N13144 1929 55 WP MM NOT_NAMED 1929-09-06 00:00:00 NR 12.9938 143.073 main 1722 1719 __________P___ -1 12.9938 143.073 7 23 292
1929249N13144 1929 55 WP MM NOT_NAMED 1929-09-06 03:00:00 NR 13.4224 141.997 main 1727 1680 __________P___ -1 13.4224 141.997 7 22 292
1929249N13144 1929 55 WP MM NOT_NAMED 1929-09-06 06:00:00 NR 13.8250 140.964 main 1680 1582 __________P___ -1 13.8250 140.964 7 21 292
1929249N13144 1929 55 WP MM NOT_NAMED 1929-09-06 09:00:00 NR 14.1892 140.000 main 1582 1553 __________P___ -1 14.1892 140.000 7 20 291
1929249N13144 1929 55 WP MM NOT_NAMED 1929-09-06 10:00:00 NR 14.3000 139.700 main 1553 1494 __________O___ -1 14.3000 139.700 7 18 291
1929249N13144 1929 55 WP MM NOT_NAMED 1929-09-06 12:00:00 NR 14.5049 139.133 main 1494 1414 __________P___ -1 14.5049 139.133 7 17 290
1929249N13144 1929 55 WP MM NOT_NAMED 1929-09-06 15:00:00 NR 14.7818 138.346 main 1414 1345 __________P___ -1 14.7818 138.346 7 16 290
1929249N13144 1929 55 WP MM NOT_NAMED 1929-09-06 18:00:00 NR 15.0419 137.601 main 1345 1279 __________P___ -1 15.0419 137.601 7 15 290
1929249N13144 1929 55 WP MM NOT_NAMED 1929-09-06 21:00:00 NR 15.3069 136.855 main 1279 1251 __________P___ -1 15.3069 136.855 7 15 290
1929249N13144 1929 55 WP MM NOT_NAMED 1929-09-06 22:00:00 NR 15.4000 136.600 main 1251 1195 __________O___ -1 15.4000 136.600 7 17 290
1929249N13144 1929 55 WP MM NOT_NAMED 1929-09-07 00:00:00 NR 15.5894 136.039 main 1195 1125 __________P___ -1 15.5894 136.039 7 17 290
1929249N13144 1929 55 WP MM NOT_NAMED 1929-09-07 03:00:00 NR 15.8859 135.179 main 1125 1049 __________P___ -1 15.8859 135.179 7 18 290
1929249N13144 1929 55 WP MM NOT_NAMED 1929-09-07 06:00:00 NR 16.2083 134.317 main 1049 987 __________P___ -1 16.2083 134.317 7 18 293
1929249N13144 1929 55 WP MM NOT_NAMED 1929-09-07 09:00:00 NR 16.5690 133.473 main 992 970 __________P___ -1 16.5690 133.473 7 18 295
1929249N13144 1929 55 WP MM NOT_NAMED 1929-09-07 10:00:00 NR 16.7000 133.200 main 970 934 __________O___ -1 16.7000 133.200 7 18 298
1929249N13144 1929 55 WP MM NOT_NAMED 1929-09-07 12:00:00 NR 16.9980 132.641 main 934 888 __________P___ -1 16.9980 132.641 7 18 301
1929249N13144 1929 55 WP MM NOT_NAMED 1929-09-07 15:00:00 NR 17.4836 131.827 main 888 844 __________P___ -1 17.4836 131.827 7 18 303
1929249N13144 1929 55 WP MM NOT_NAMED 1929-09-07 18:00:00 NR 17.9817 131.069 main 850 815 __________P___ -1 17.9817 131.069 7 17 306
1929249N13144 1929 55 WP MM NOT_NAMED 1929-09-07 21:00:00 NR 18.4545 130.399 main 821 812 __________P___ -1 18.4545 130.399 7 16 307
1929249N13144 1929 55 WP MM NOT_NAMED 1929-09-07 22:00:00 NR 18.6000 130.200 main 812 791 __________O___ -1 18.6000 130.200 7 13 305
1929249N13144 1929 55 WP MM NOT_NAMED 1929-09-08 00:00:00 NR 18.8261 129.844 main 791 751 __________P___ -1 18.8261 129.844 7 11 305
1929249N13144 1929 55 WP MM NOT_NAMED 1929-09-08 03:00:00 NR 19.1280 129.399 main 751 713 __________P___ -1 19.1280 129.399 7 10 308
1929249N13144 1929 55 WP MM NOT_NAMED 1929-09-08 06:00:00 NR 19.4266 129.031 main 713 688 __________P___ -1 19.4266 129.031 7 9 314
1929249N13144 1929 55 WP MM NOT_NAMED 1929-09-08 09:00:00 NR 19.7685 128.705 main 690 682 __________P___ -1 19.7685 128.705 7 9 319
1929249N13144 1929 55 WP MM NOT_NAMED 1929-09-08 10:00:00 NR 19.9000 128.600 main 682 657 __________O___ -1 19.9000 128.600 7 12 318
1929249N13144 1929 55 WP MM NOT_NAMED 1929-09-08 12:00:00 NR 20.1971 128.292 main 661 631 __________P___ -1 20.1971 128.292 7 13 318
1929249N13144 1929 55 WP MM NOT_NAMED 1929-09-08 15:00:00 NR 20.6988 127.847 main 631 626 __________P___ -1 20.6988 127.847 7 13 325
1929249N13144 1929 55 WP MM NOT_NAMED 1929-09-08 18:00:00 NR 21.2624 127.493 main 633 620 __________P___ -1 21.2624 127.493 7 13 337
1929249N13144 1929 55 WP MM NOT_NAMED 1929-09-08 21:00:00 NR 21.8820 127.309 main 620 612 __________P___ -1 21.8820 127.309 7 13 348
1929249N13144 1929 55 WP MM NOT_NAMED 1929-09-08 22:00:00 NR 22.1000 127.300 main 612 598 __________O___ -1 22.1000 127.300 7 14 6
1929249N13144 1929 55 WP MM NOT_NAMED 1929-09-09 00:00:00 NR 22.5723 127.398 main 599 595 __________P___ -1 22.5723 127.398 7 16 18
1929249N13144 1929 55 WP MM NOT_NAMED 1929-09-09 03:00:00 NR 23.3260 127.729 main 604 609 __________P___ -1 23.3260 127.729 7 17 26
1929249N13144 1929 55 WP MM NOT_NAMED 1929-09-09 06:00:00 NR 24.0831 128.204 main 634 634 __________P___ -1 24.0831 128.204 7 17 32
1929249N13144 1929 55 WP MM NOT_NAMED 1929-09-09 09:00:00 NR 24.7869 128.730 main 675 685 __________P___ -1 24.7869 128.730 7 17 35
1929249N13144 1929 55 WP MM NOT_NAMED 1929-09-09 10:00:00 NR 25.0000 128.900 main 692 642 __________O___ -1 25.0000 128.900 7 15 36
1929249N13144 1929 55 WP MM NOT_NAMED 1929-09-09 12:00:00 NR 25.3861 129.218 main 642 579 __________P___ -1 25.3861 129.218 7 13 37
1929249N13144 1929 55 WP MM NOT_NAMED 1929-09-09 15:00:00 NR 25.8802 129.644 main 579 529 __________P___ -1 25.8802 129.644 7 12 39
1929249N13144 1929 55 WP MM NOT_NAMED 1929-09-09 18:00:00 NR 26.3003 130.026 main 529 480 __________P___ -1 26.3003 130.026 7 10 40
1929249N13144 1929 55 WP MM NOT_NAMED 1929-09-09 21:00:00 NR 26.6781 130.383 main 480 469 __________P___ -1 26.6781 130.383 7 10 40
1929249N13144 1929 55 WP MM NOT_NAMED 1929-09-09 22:00:00 NR 26.8000 130.500 main 469 __________O___ -1 26.8000 130.500 7 10 40

Digital Typhoon Data and Search

About IBTrACS Database

This database is a web-friendly format of International Best Track Archive for Climate Stewardship (IBTrACS), a global best track data archive curated by NOAA dating back to 1842.

Updated: 2021-10-21